sensor_id;sensor_type;location;lat;lon;timestamp;P1;durP1;ratioP1;P2;durP2;ratioP2
38693;SDS011;24447;43.460;25.744;2022-07-29T00:00:06;18.50;;;9.55;;
38693;SDS011;24447;43.460;25.744;2022-07-29T00:02:34;20.52;;;9.95;;
38693;SDS011;24447;43.460;25.744;2022-07-29T00:05:00;17.27;;;8.77;;
38693;SDS011;24447;43.460;25.744;2022-07-29T00:07:26;16.30;;;9.35;;
38693;SDS011;24447;43.460;25.744;2022-07-29T00:09:52;20.08;;;10.38;;
38693;SDS011;24447;43.460;25.744;2022-07-29T00:12:19;20.20;;;11.20;;
38693;SDS011;24447;43.460;25.744;2022-07-29T00:14:46;24.42;;;11.35;;
38693;SDS011;24447;43.460;25.744;2022-07-29T00:17:12;21.52;;;11.88;;
38693;SDS011;24447;43.460;25.744;2022-07-29T00:19:38;19.17;;;10.73;;
38693;SDS011;24447;43.460;25.744;2022-07-29T00:22:04;20.83;;;10.82;;
38693;SDS011;24447;43.460;25.744;2022-07-29T00:24:30;21.13;;;12.27;;
38693;SDS011;24447;43.460;25.744;2022-07-29T00:26:56;20.38;;;10.88;;
38693;SDS011;24447;43.460;25.744;2022-07-29T00:29:22;19.05;;;11.40;;
38693;SDS011;24447;43.460;25.744;2022-07-29T00:31:47;23.75;;;11.10;;
38693;SDS011;24447;43.460;25.744;2022-07-29T00:34:13;25.77;;;11.75;;
38693;SDS011;24447;43.460;25.744;2022-07-29T00:36:58;20.60;;;12.13;;
38693;SDS011;24447;43.460;25.744;2022-07-29T00:39:24;21.35;;;12.05;;
38693;SDS011;24447;43.460;25.744;2022-07-29T00:41:50;24.88;;;11.55;;
38693;SDS011;24447;43.460;25.744;2022-07-29T00:44:16;28.48;;;10.82;;
38693;SDS011;24447;43.460;25.744;2022-07-29T00:46:42;21.88;;;10.82;;
38693;SDS011;24447;43.460;25.744;2022-07-29T00:49:07;24.88;;;12.00;;
38693;SDS011;24447;43.460;25.744;2022-07-29T00:51:37;25.70;;;12.20;;
38693;SDS011;24447;43.460;25.744;2022-07-29T00:54:04;24.92;;;12.35;;
38693;SDS011;24447;43.460;25.744;2022-07-29T00:56:30;26.13;;;11.45;;
38693;SDS011;24447;43.460;25.744;2022-07-29T00:58:57;18.02;;;10.60;;
38693;SDS011;24447;43.460;25.744;2022-07-29T01:01:24;22.10;;;10.77;;
38693;SDS011;24447;43.460;25.744;2022-07-29T01:03:49;21.45;;;10.70;;
38693;SDS011;24447;43.460;25.744;2022-07-29T01:06:16;18.08;;;10.48;;
38693;SDS011;24447;43.460;25.744;2022-07-29T01:08:43;21.73;;;10.50;;
38693;SDS011;24447;43.460;25.744;2022-07-29T01:11:09;20.48;;;11.32;;
38693;SDS011;24447;43.460;25.744;2022-07-29T01:13:35;19.02;;;9.60;;
38693;SDS011;24447;43.460;25.744;2022-07-29T01:19:58;21.08;;;10.13;;
38693;SDS011;24447;43.460;25.744;2022-07-29T01:22:26;19.85;;;10.75;;
38693;SDS011;24447;43.460;25.744;2022-07-29T01:27:59;20.80;;;10.68;;
38693;SDS011;24447;43.460;25.744;2022-07-29T01:30:34;21.23;;;10.32;;
38693;SDS011;24447;43.460;25.744;2022-07-29T01:33:06;20.25;;;10.65;;
38693;SDS011;24447;43.460;25.744;2022-07-29T01:35:38;18.45;;;9.65;;
38693;SDS011;24447;43.460;25.744;2022-07-29T01:38:20;21.17;;;11.68;;
38693;SDS011;24447;43.460;25.744;2022-07-29T01:40:49;23.90;;;11.02;;
38693;SDS011;24447;43.460;25.744;2022-07-29T01:43:27;17.48;;;9.88;;
38693;SDS011;24447;43.460;25.744;2022-07-29T01:46:03;21.35;;;10.40;;
38693;SDS011;24447;43.460;25.744;2022-07-29T01:51:25;22.83;;;10.93;;
38693;SDS011;24447;43.460;25.744;2022-07-29T01:56:42;23.50;;;10.80;;
38693;SDS011;24447;43.460;25.744;2022-07-29T01:59:09;20.85;;;11.18;;
38693;SDS011;24447;43.460;25.744;2022-07-29T02:01:35;18.55;;;10.80;;
38693;SDS011;24447;43.460;25.744;2022-07-29T02:04:02;18.70;;;10.18;;
38693;SDS011;24447;43.460;25.744;2022-07-29T02:06:29;22.60;;;10.60;;
38693;SDS011;24447;43.460;25.744;2022-07-29T02:08:56;19.20;;;9.68;;
38693;SDS011;24447;43.460;25.744;2022-07-29T02:11:24;17.88;;;9.60;;
38693;SDS011;24447;43.460;25.744;2022-07-29T02:13:50;16.02;;;7.63;;
38693;SDS011;24447;43.460;25.744;2022-07-29T02:16:18;21.52;;;8.90;;
38693;SDS011;24447;43.460;25.744;2022-07-29T02:18:46;15.48;;;8.50;;
38693;SDS011;24447;43.460;25.744;2022-07-29T02:21:15;18.83;;;9.23;;
38693;SDS011;24447;43.460;25.744;2022-07-29T02:23:45;17.70;;;9.70;;
38693;SDS011;24447;43.460;25.744;2022-07-29T02:26:11;19.90;;;10.13;;
38693;SDS011;24447;43.460;25.744;2022-07-29T02:28:37;21.83;;;10.10;;
38693;SDS011;24447;43.460;25.744;2022-07-29T02:31:04;20.45;;;9.40;;
38693;SDS011;24447;43.460;25.744;2022-07-29T02:33:31;18.25;;;10.18;;
38693;SDS011;24447;43.460;25.744;2022-07-29T02:35:58;25.08;;;11.07;;
38693;SDS011;24447;43.460;25.744;2022-07-29T02:38:25;18.30;;;10.82;;
38693;SDS011;24447;43.460;25.744;2022-07-29T02:41:20;19.80;;;10.57;;
38693;SDS011;24447;43.460;25.744;2022-07-29T02:43:50;17.40;;;10.20;;
38693;SDS011;24447;43.460;25.744;2022-07-29T02:46:29;20.33;;;9.98;;
38693;SDS011;24447;43.460;25.744;2022-07-29T02:49:17;17.60;;;9.75;;
38693;SDS011;24447;43.460;25.744;2022-07-29T02:51:53;19.80;;;9.95;;
38693;SDS011;24447;43.460;25.744;2022-07-29T02:54:31;19.13;;;9.55;;
38693;SDS011;24447;43.460;25.744;2022-07-29T02:57:03;25.90;;;10.20;;
38693;SDS011;24447;43.460;25.744;2022-07-29T02:59:35;23.90;;;10.38;;
38693;SDS011;24447;43.460;25.744;2022-07-29T03:02:02;25.75;;;10.13;;
38693;SDS011;24447;43.460;25.744;2022-07-29T03:04:29;22.52;;;10.13;;
38693;SDS011;24447;43.460;25.744;2022-07-29T03:06:57;20.48;;;11.00;;
38693;SDS011;24447;43.460;25.744;2022-07-29T03:09:24;19.42;;;9.68;;
38693;SDS011;24447;43.460;25.744;2022-07-29T03:11:51;17.92;;;10.25;;
38693;SDS011;24447;43.460;25.744;2022-07-29T03:14:19;23.10;;;10.50;;
38693;SDS011;24447;43.460;25.744;2022-07-29T03:16:45;19.63;;;9.52;;
38693;SDS011;24447;43.460;25.744;2022-07-29T03:19:12;21.85;;;11.50;;
38693;SDS011;24447;43.460;25.744;2022-07-29T03:21:38;18.27;;;9.27;;
38693;SDS011;24447;43.460;25.744;2022-07-29T03:24:04;17.25;;;9.02;;
38693;SDS011;24447;43.460;25.744;2022-07-29T03:26:30;18.35;;;8.52;;
38693;SDS011;24447;43.460;25.744;2022-07-29T03:28:56;29.25;;;8.98;;
38693;SDS011;24447;43.460;25.744;2022-07-29T03:31:22;22.27;;;9.43;;
38693;SDS011;24447;43.460;25.744;2022-07-29T03:33:48;19.60;;;9.15;;
38693;SDS011;24447;43.460;25.744;2022-07-29T03:36:14;17.05;;;7.75;;
38693;SDS011;24447;43.460;25.744;2022-07-29T03:38:41;16.08;;;8.25;;
38693;SDS011;24447;43.460;25.744;2022-07-29T03:41:09;14.60;;;7.60;;
38693;SDS011;24447;43.460;25.744;2022-07-29T03:43:36;14.05;;;7.70;;
38693;SDS011;24447;43.460;25.744;2022-07-29T03:46:04;19.13;;;8.07;;
38693;SDS011;24447;43.460;25.744;2022-07-29T03:48:33;17.40;;;8.35;;
38693;SDS011;24447;43.460;25.744;2022-07-29T03:51:00;16.70;;;8.45;;
38693;SDS011;24447;43.460;25.744;2022-07-29T03:53:27;21.70;;;8.70;;
38693;SDS011;24447;43.460;25.744;2022-07-29T03:55:54;16.45;;;7.15;;
38693;SDS011;24447;43.460;25.744;2022-07-29T03:58:21;16.67;;;7.25;;
38693;SDS011;24447;43.460;25.744;2022-07-29T04:00:48;21.52;;;7.55;;
38693;SDS011;24447;43.460;25.744;2022-07-29T04:03:14;14.52;;;6.70;;
38693;SDS011;24447;43.460;25.744;2022-07-29T04:05:40;13.30;;;6.55;;
38693;SDS011;24447;43.460;25.744;2022-07-29T04:08:06;15.52;;;5.80;;
38693;SDS011;24447;43.460;25.744;2022-07-29T04:10:32;15.18;;;5.75;;
38693;SDS011;24447;43.460;25.744;2022-07-29T04:12:58;14.73;;;5.68;;
38693;SDS011;24447;43.460;25.744;2022-07-29T04:15:25;13.75;;;5.50;;
38693;SDS011;24447;43.460;25.744;2022-07-29T04:17:52;11.23;;;5.38;;
38693;SDS011;24447;43.460;25.744;2022-07-29T04:20:18;10.35;;;5.28;;
38693;SDS011;24447;43.460;25.744;2022-07-29T04:22:44;8.85;;;4.88;;
38693;SDS011;24447;43.460;25.744;2022-07-29T04:25:10;19.30;;;5.35;;
38693;SDS011;24447;43.460;25.744;2022-07-29T04:27:36;12.95;;;4.90;;
38693;SDS011;24447;43.460;25.744;2022-07-29T04:30:21;15.73;;;5.07;;
38693;SDS011;24447;43.460;25.744;2022-07-29T04:32:47;11.20;;;5.10;;
38693;SDS011;24447;43.460;25.744;2022-07-29T04:35:13;8.65;;;4.15;;
38693;SDS011;24447;43.460;25.744;2022-07-29T04:37:39;14.48;;;4.78;;
38693;SDS011;24447;43.460;25.744;2022-07-29T04:40:05;13.07;;;4.00;;
38693;SDS011;24447;43.460;25.744;2022-07-29T04:42:32;12.48;;;4.30;;
38693;SDS011;24447;43.460;25.744;2022-07-29T04:44:57;11.25;;;3.83;;
38693;SDS011;24447;43.460;25.744;2022-07-29T04:47:24;8.73;;;4.20;;
38693;SDS011;24447;43.460;25.744;2022-07-29T04:49:50;13.23;;;3.80;;
38693;SDS011;24447;43.460;25.744;2022-07-29T04:52:15;7.72;;;4.10;;
38693;SDS011;24447;43.460;25.744;2022-07-29T04:54:41;13.23;;;3.83;;
38693;SDS011;24447;43.460;25.744;2022-07-29T04:57:07;12.43;;;3.90;;
38693;SDS011;24447;43.460;25.744;2022-07-29T04:59:33;14.63;;;5.07;;
38693;SDS011;24447;43.460;25.744;2022-07-29T05:01:59;8.73;;;4.20;;
38693;SDS011;24447;43.460;25.744;2022-07-29T05:04:25;14.75;;;4.70;;
38693;SDS011;24447;43.460;25.744;2022-07-29T05:06:51;11.98;;;4.57;;
38693;SDS011;24447;43.460;25.744;2022-07-29T05:09:17;12.70;;;5.05;;
38693;SDS011;24447;43.460;25.744;2022-07-29T05:11:43;9.30;;;4.82;;
38693;SDS011;24447;43.460;25.744;2022-07-29T05:14:09;10.57;;;4.57;;
38693;SDS011;24447;43.460;25.744;2022-07-29T05:16:35;6.25;;;3.40;;
38693;SDS011;24447;43.460;25.744;2022-07-29T05:19:01;9.07;;;3.88;;
38693;SDS011;24447;43.460;25.744;2022-07-29T05:21:27;5.72;;;3.50;;
38693;SDS011;24447;43.460;25.744;2022-07-29T05:23:52;7.15;;;3.75;;
38693;SDS011;24447;43.460;25.744;2022-07-29T05:26:19;15.35;;;4.45;;
38693;SDS011;24447;43.460;25.744;2022-07-29T05:28:44;4.25;;;3.38;;
38693;SDS011;24447;43.460;25.744;2022-07-29T05:31:10;7.30;;;4.20;;
38693;SDS011;24447;43.460;25.744;2022-07-29T05:33:36;9.88;;;3.50;;
38693;SDS011;24447;43.460;25.744;2022-07-29T05:36:03;4.80;;;3.38;;
38693;SDS011;24447;43.460;25.744;2022-07-29T05:38:33;4.97;;;3.42;;
38693;SDS011;24447;43.460;25.744;2022-07-29T05:41:02;10.23;;;3.17;;
38693;SDS011;24447;43.460;25.744;2022-07-29T05:43:28;10.15;;;4.53;;
38693;SDS011;24447;43.460;25.744;2022-07-29T05:45:54;10.27;;;3.67;;
38693;SDS011;24447;43.460;25.744;2022-07-29T05:48:20;5.20;;;3.20;;
38693;SDS011;24447;43.460;25.744;2022-07-29T05:50:46;7.90;;;3.20;;
38693;SDS011;24447;43.460;25.744;2022-07-29T05:53:12;11.63;;;4.43;;
38693;SDS011;24447;43.460;25.744;2022-07-29T05:55:38;7.60;;;3.40;;
38693;SDS011;24447;43.460;25.744;2022-07-29T05:58:04;7.47;;;4.43;;
38693;SDS011;24447;43.460;25.744;2022-07-29T06:00:30;7.85;;;3.95;;
38693;SDS011;24447;43.460;25.744;2022-07-29T06:02:56;6.80;;;3.95;;
38693;SDS011;24447;43.460;25.744;2022-07-29T06:05:22;7.72;;;3.28;;
38693;SDS011;24447;43.460;25.744;2022-07-29T06:07:48;11.82;;;3.80;;
38693;SDS011;24447;43.460;25.744;2022-07-29T06:10:14;9.75;;;3.30;;
38693;SDS011;24447;43.460;25.744;2022-07-29T06:12:40;13.63;;;3.70;;
38693;SDS011;24447;43.460;25.744;2022-07-29T06:15:06;6.00;;;3.42;;
38693;SDS011;24447;43.460;25.744;2022-07-29T06:17:32;8.68;;;3.17;;
38693;SDS011;24447;43.460;25.744;2022-07-29T06:19:58;9.60;;;3.92;;
38693;SDS011;24447;43.460;25.744;2022-07-29T06:22:24;5.68;;;3.38;;
38693;SDS011;24447;43.460;25.744;2022-07-29T06:24:50;9.18;;;4.70;;
38693;SDS011;24447;43.460;25.744;2022-07-29T06:27:16;7.78;;;3.15;;
38693;SDS011;24447;43.460;25.744;2022-07-29T06:29:42;7.80;;;3.42;;
38693;SDS011;24447;43.460;25.744;2022-07-29T06:32:08;8.15;;;3.20;;
38693;SDS011;24447;43.460;25.744;2022-07-29T06:34:34;6.95;;;2.75;;
38693;SDS011;24447;43.460;25.744;2022-07-29T06:37:05;5.45;;;3.28;;
38693;SDS011;24447;43.460;25.744;2022-07-29T06:39:33;8.32;;;3.38;;
38693;SDS011;24447;43.460;25.744;2022-07-29T06:42:00;4.25;;;2.83;;
38693;SDS011;24447;43.460;25.744;2022-07-29T06:44:26;4.85;;;3.40;;
38693;SDS011;24447;43.460;25.744;2022-07-29T06:46:52;8.95;;;3.50;;
38693;SDS011;24447;43.460;25.744;2022-07-29T06:49:19;6.18;;;3.30;;
38693;SDS011;24447;43.460;25.744;2022-07-29T06:51:45;3.90;;;2.88;;
38693;SDS011;24447;43.460;25.744;2022-07-29T06:54:11;9.18;;;3.45;;
38693;SDS011;24447;43.460;25.744;2022-07-29T06:56:37;8.45;;;3.33;;
38693;SDS011;24447;43.460;25.744;2022-07-29T06:59:06;8.35;;;3.33;;
38693;SDS011;24447;43.460;25.744;2022-07-29T07:01:33;7.10;;;3.42;;
38693;SDS011;24447;43.460;25.744;2022-07-29T07:04:00;4.63;;;3.05;;
38693;SDS011;24447;43.460;25.744;2022-07-29T07:06:26;5.57;;;3.63;;
38693;SDS011;24447;43.460;25.744;2022-07-29T07:08:52;5.35;;;3.00;;
38693;SDS011;24447;43.460;25.744;2022-07-29T07:11:18;3.35;;;3.05;;
38693;SDS011;24447;43.460;25.744;2022-07-29T07:13:44;5.18;;;3.40;;
38693;SDS011;24447;43.460;25.744;2022-07-29T07:16:10;8.23;;;3.28;;
38693;SDS011;24447;43.460;25.744;2022-07-29T07:18:36;14.63;;;3.65;;
38693;SDS011;24447;43.460;25.744;2022-07-29T07:21:02;5.32;;;3.05;;
38693;SDS011;24447;43.460;25.744;2022-07-29T07:23:29;3.88;;;3.30;;
38693;SDS011;24447;43.460;25.744;2022-07-29T07:25:55;4.82;;;3.60;;
38693;SDS011;24447;43.460;25.744;2022-07-29T07:28:21;9.88;;;3.60;;
38693;SDS011;24447;43.460;25.744;2022-07-29T07:30:47;4.53;;;3.50;;
38693;SDS011;24447;43.460;25.744;2022-07-29T07:33:13;5.22;;;3.30;;
38693;SDS011;24447;43.460;25.744;2022-07-29T07:35:40;7.47;;;3.13;;
38693;SDS011;24447;43.460;25.744;2022-07-29T07:38:06;4.85;;;3.15;;
38693;SDS011;24447;43.460;25.744;2022-07-29T07:40:32;8.05;;;3.40;;
38693;SDS011;24447;43.460;25.744;2022-07-29T07:42:58;3.22;;;2.92;;
38693;SDS011;24447;43.460;25.744;2022-07-29T07:45:24;5.70;;;3.08;;
38693;SDS011;24447;43.460;25.744;2022-07-29T07:47:50;6.30;;;3.20;;
38693;SDS011;24447;43.460;25.744;2022-07-29T07:50:16;4.75;;;3.42;;
38693;SDS011;24447;43.460;25.744;2022-07-29T07:52:48;4.00;;;3.22;;
38693;SDS011;24447;43.460;25.744;2022-07-29T07:55:15;5.53;;;3.05;;
38693;SDS011;24447;43.460;25.744;2022-07-29T07:57:42;4.22;;;3.13;;
38693;SDS011;24447;43.460;25.744;2022-07-29T08:00:08;9.88;;;3.47;;
38693;SDS011;24447;43.460;25.744;2022-07-29T08:02:34;3.53;;;3.05;;
38693;SDS011;24447;43.460;25.744;2022-07-29T08:05:00;3.13;;;2.80;;
38693;SDS011;24447;43.460;25.744;2022-07-29T08:07:26;4.57;;;2.85;;
38693;SDS011;24447;43.460;25.744;2022-07-29T08:09:52;7.25;;;3.15;;
38693;SDS011;24447;43.460;25.744;2022-07-29T08:12:18;5.10;;;3.20;;
38693;SDS011;24447;43.460;25.744;2022-07-29T08:14:44;7.32;;;3.20;;
38693;SDS011;24447;43.460;25.744;2022-07-29T08:17:10;9.82;;;4.13;;
38693;SDS011;24447;43.460;25.744;2022-07-29T08:19:36;4.60;;;3.00;;
38693;SDS011;24447;43.460;25.744;2022-07-29T08:22:02;6.75;;;3.10;;
38693;SDS011;24447;43.460;25.744;2022-07-29T08:24:28;6.18;;;3.20;;
38693;SDS011;24447;43.460;25.744;2022-07-29T08:27:11;7.05;;;4.13;;
38693;SDS011;24447;43.460;25.744;2022-07-29T08:29:38;5.53;;;3.60;;
38693;SDS011;24447;43.460;25.744;2022-07-29T08:32:04;7.20;;;3.10;;
38693;SDS011;24447;43.460;25.744;2022-07-29T08:34:30;6.95;;;4.25;;
38693;SDS011;24447;43.460;25.744;2022-07-29T08:36:57;9.23;;;3.63;;
38693;SDS011;24447;43.460;25.744;2022-07-29T08:39:23;5.60;;;3.17;;
38693;SDS011;24447;43.460;25.744;2022-07-29T08:41:49;4.32;;;3.15;;
38693;SDS011;24447;43.460;25.744;2022-07-29T08:44:19;5.85;;;3.38;;
38693;SDS011;24447;43.460;25.744;2022-07-29T08:46:46;6.32;;;3.38;;
38693;SDS011;24447;43.460;25.744;2022-07-29T08:49:13;5.72;;;3.42;;
38693;SDS011;24447;43.460;25.744;2022-07-29T08:51:39;7.28;;;3.70;;
38693;SDS011;24447;43.460;25.744;2022-07-29T08:54:07;7.60;;;3.78;;
38693;SDS011;24447;43.460;25.744;2022-07-29T08:56:34;4.85;;;3.60;;
38693;SDS011;24447;43.460;25.744;2022-07-29T08:59:02;7.47;;;3.75;;
38693;SDS011;24447;43.460;25.744;2022-07-29T09:01:30;6.22;;;3.35;;
38693;SDS011;24447;43.460;25.744;2022-07-29T09:03:58;8.47;;;4.27;;
38693;SDS011;24447;43.460;25.744;2022-07-29T09:06:26;4.18;;;3.28;;
38693;SDS011;24447;43.460;25.744;2022-07-29T09:08:58;3.78;;;3.38;;
38693;SDS011;24447;43.460;25.744;2022-07-29T09:11:25;5.38;;;3.75;;
38693;SDS011;24447;43.460;25.744;2022-07-29T09:13:51;7.05;;;3.92;;
38693;SDS011;24447;43.460;25.744;2022-07-29T09:16:16;7.40;;;3.90;;
38693;SDS011;24447;43.460;25.744;2022-07-29T09:18:43;4.03;;;3.47;;
38693;SDS011;24447;43.460;25.744;2022-07-29T09:21:11;8.25;;;3.78;;
38693;SDS011;24447;43.460;25.744;2022-07-29T09:24:04;6.38;;;3.45;;
38693;SDS011;24447;43.460;25.744;2022-07-29T09:26:41;7.05;;;3.58;;
38693;SDS011;24447;43.460;25.744;2022-07-29T09:29:11;5.25;;;3.28;;
38693;SDS011;24447;43.460;25.744;2022-07-29T09:31:39;3.70;;;3.35;;
38693;SDS011;24447;43.460;25.744;2022-07-29T09:34:16;5.93;;;3.50;;
38693;SDS011;24447;43.460;25.744;2022-07-29T09:36:47;11.48;;;4.13;;
38693;SDS011;24447;43.460;25.744;2022-07-29T09:39:15;11.63;;;3.88;;
38693;SDS011;24447;43.460;25.744;2022-07-29T09:41:49;12.63;;;3.80;;
38693;SDS011;24447;43.460;25.744;2022-07-29T09:44:19;8.50;;;3.80;;
38693;SDS011;24447;43.460;25.744;2022-07-29T09:47:03;7.50;;;3.55;;
38693;SDS011;24447;43.460;25.744;2022-07-29T09:49:33;6.50;;;3.75;;
38693;SDS011;24447;43.460;25.744;2022-07-29T09:54:30;7.95;;;3.10;;
38693;SDS011;24447;43.460;25.744;2022-07-29T09:57:06;6.65;;;4.00;;
38693;SDS011;24447;43.460;25.744;2022-07-29T09:59:37;4.43;;;3.10;;
38693;SDS011;24447;43.460;25.744;2022-07-29T10:02:12;5.30;;;3.53;;
38693;SDS011;24447;43.460;25.744;2022-07-29T10:04:41;9.02;;;4.07;;
38693;SDS011;24447;43.460;25.744;2022-07-29T10:07:08;8.88;;;3.60;;
38693;SDS011;24447;43.460;25.744;2022-07-29T10:09:35;7.90;;;3.63;;
38693;SDS011;24447;43.460;25.744;2022-07-29T10:12:05;8.80;;;3.78;;
38693;SDS011;24447;43.460;25.744;2022-07-29T10:14:36;8.52;;;3.65;;
38693;SDS011;24447;43.460;25.744;2022-07-29T10:17:03;9.80;;;4.47;;
38693;SDS011;24447;43.460;25.744;2022-07-29T10:19:30;5.78;;;3.00;;
38693;SDS011;24447;43.460;25.744;2022-07-29T10:21:58;4.30;;;3.45;;
38693;SDS011;24447;43.460;25.744;2022-07-29T10:24:28;7.38;;;3.45;;
38693;SDS011;24447;43.460;25.744;2022-07-29T10:26:55;5.38;;;3.72;;
38693;SDS011;24447;43.460;25.744;2022-07-29T10:29:22;5.43;;;3.70;;
38693;SDS011;24447;43.460;25.744;2022-07-29T10:31:58;6.47;;;3.58;;
38693;SDS011;24447;43.460;25.744;2022-07-29T10:38:02;4.88;;;3.58;;
38693;SDS011;24447;43.460;25.744;2022-07-29T10:40:28;4.00;;;3.25;;
38693;SDS011;24447;43.460;25.744;2022-07-29T10:43:24;7.30;;;3.90;;
38693;SDS011;24447;43.460;25.744;2022-07-29T10:45:57;10.85;;;3.78;;
38693;SDS011;24447;43.460;25.744;2022-07-29T10:48:24;7.43;;;3.55;;
38693;SDS011;24447;43.460;25.744;2022-07-29T10:53:22;7.03;;;3.67;;
38693;SDS011;24447;43.460;25.744;2022-07-29T10:55:49;5.63;;;3.28;;
38693;SDS011;24447;43.460;25.744;2022-07-29T10:58:22;5.97;;;3.95;;
38693;SDS011;24447;43.460;25.744;2022-07-29T11:00:50;10.90;;;3.45;;
38693;SDS011;24447;43.460;25.744;2022-07-29T11:04:02;4.88;;;3.50;;
38693;SDS011;24447;43.460;25.744;2022-07-29T11:06:25;5.45;;;3.35;;
38693;SDS011;24447;43.460;25.744;2022-07-29T11:09:15;5.55;;;3.28;;
38693;SDS011;24447;43.460;25.744;2022-07-29T11:11:44;4.68;;;3.55;;
38693;SDS011;24447;43.460;25.744;2022-07-29T11:14:11;7.72;;;3.40;;
38693;SDS011;24447;43.460;25.744;2022-07-29T11:19:25;8.07;;;3.38;;
38693;SDS011;24447;43.460;25.744;2022-07-29T11:21:51;6.13;;;3.60;;
38693;SDS011;24447;43.460;25.744;2022-07-29T11:24:21;5.93;;;3.60;;
38693;SDS011;24447;43.460;25.744;2022-07-29T11:27:06;9.60;;;4.03;;
38693;SDS011;24447;43.460;25.744;2022-07-29T11:29:48;7.80;;;3.97;;
38693;SDS011;24447;43.460;25.744;2022-07-29T11:32:18;4.18;;;3.30;;
38693;SDS011;24447;43.460;25.744;2022-07-29T11:34:45;7.22;;;3.72;;
38693;SDS011;24447;43.460;25.744;2022-07-29T11:39:45;4.80;;;3.70;;
38693;SDS011;24447;43.460;25.744;2022-07-29T11:50:18;6.43;;;3.40;;
38693;SDS011;24447;43.460;25.744;2022-07-29T11:52:52;4.78;;;3.53;;
38693;SDS011;24447;43.460;25.744;2022-07-29T11:55:19;6.03;;;3.30;;
38693;SDS011;24447;43.460;25.744;2022-07-29T11:57:53;6.25;;;3.60;;
38693;SDS011;24447;43.460;25.744;2022-07-29T12:00:39;7.68;;;3.22;;
38693;SDS011;24447;43.460;25.744;2022-07-29T12:03:08;8.82;;;4.03;;
38693;SDS011;24447;43.460;25.744;2022-07-29T12:05:41;5.68;;;3.00;;
38693;SDS011;24447;43.460;25.744;2022-07-29T12:08:18;4.57;;;3.20;;
38693;SDS011;24447;43.460;25.744;2022-07-29T12:10:46;6.68;;;3.65;;
38693;SDS011;24447;43.460;25.744;2022-07-29T12:13:14;8.95;;;3.47;;
38693;SDS011;24447;43.460;25.744;2022-07-29T12:15:41;6.80;;;3.40;;
38693;SDS011;24447;43.460;25.744;2022-07-29T12:20:42;7.97;;;3.60;;
38693;SDS011;24447;43.460;25.744;2022-07-29T12:23:10;9.88;;;3.75;;
38693;SDS011;24447;43.460;25.744;2022-07-29T12:25:40;5.55;;;3.65;;
38693;SDS011;24447;43.460;25.744;2022-07-29T12:28:11;6.78;;;3.45;;
38693;SDS011;24447;43.460;25.744;2022-07-29T12:30:41;4.75;;;3.53;;
38693;SDS011;24447;43.460;25.744;2022-07-29T12:33:10;8.32;;;3.90;;
38693;SDS011;24447;43.460;25.744;2022-07-29T12:35:51;4.35;;;2.90;;
38693;SDS011;24447;43.460;25.744;2022-07-29T12:38:19;6.50;;;3.15;;
38693;SDS011;24447;43.460;25.744;2022-07-29T12:40:46;8.35;;;3.88;;
38693;SDS011;24447;43.460;25.744;2022-07-29T12:43:14;8.73;;;3.67;;
38693;SDS011;24447;43.460;25.744;2022-07-29T12:45:44;6.32;;;3.70;;
38693;SDS011;24447;43.460;25.744;2022-07-29T12:48:15;9.32;;;3.33;;
38693;SDS011;24447;43.460;25.744;2022-07-29T12:50:57;6.75;;;3.55;;
38693;SDS011;24447;43.460;25.744;2022-07-29T12:53:25;6.22;;;3.47;;
38693;SDS011;24447;43.460;25.744;2022-07-29T12:55:51;5.05;;;3.70;;
38693;SDS011;24447;43.460;25.744;2022-07-29T13:01:12;4.97;;;3.67;;
38693;SDS011;24447;43.460;25.744;2022-07-29T13:03:53;8.05;;;3.63;;
38693;SDS011;24447;43.460;25.744;2022-07-29T13:11:34;4.82;;;3.42;;
38693;SDS011;24447;43.460;25.744;2022-07-29T13:14:01;9.82;;;3.40;;
38693;SDS011;24447;43.460;25.744;2022-07-29T13:16:27;6.70;;;3.90;;
38693;SDS011;24447;43.460;25.744;2022-07-29T13:19:03;4.25;;;3.33;;
38693;SDS011;24447;43.460;25.744;2022-07-29T13:21:31;3.97;;;3.22;;
38693;SDS011;24447;43.460;25.744;2022-07-29T13:23:56;5.63;;;3.00;;
38693;SDS011;24447;43.460;25.744;2022-07-29T13:26:22;7.25;;;3.53;;
38693;SDS011;24447;43.460;25.744;2022-07-29T13:28:48;5.88;;;3.38;;
38693;SDS011;24447;43.460;25.744;2022-07-29T13:31:14;7.38;;;3.58;;
38693;SDS011;24447;43.460;25.744;2022-07-29T13:33:40;5.65;;;3.67;;
38693;SDS011;24447;43.460;25.744;2022-07-29T13:36:06;6.18;;;3.50;;
38693;SDS011;24447;43.460;25.744;2022-07-29T13:38:32;6.97;;;3.45;;
38693;SDS011;24447;43.460;25.744;2022-07-29T13:40:59;5.80;;;3.45;;
38693;SDS011;24447;43.460;25.744;2022-07-29T13:43:25;11.23;;;3.80;;
38693;SDS011;24447;43.460;25.744;2022-07-29T13:45:50;5.13;;;3.33;;
38693;SDS011;24447;43.460;25.744;2022-07-29T13:48:17;5.43;;;3.50;;
38693;SDS011;24447;43.460;25.744;2022-07-29T13:50:43;7.00;;;3.47;;
38693;SDS011;24447;43.460;25.744;2022-07-29T13:53:09;5.80;;;3.55;;
38693;SDS011;24447;43.460;25.744;2022-07-29T13:55:35;6.43;;;3.60;;
38693;SDS011;24447;43.460;25.744;2022-07-29T13:58:01;4.28;;;3.50;;
38693;SDS011;24447;43.460;25.744;2022-07-29T14:00:26;5.65;;;3.30;;
38693;SDS011;24447;43.460;25.744;2022-07-29T14:02:52;5.55;;;3.42;;
38693;SDS011;24447;43.460;25.744;2022-07-29T14:05:18;6.57;;;3.33;;
38693;SDS011;24447;43.460;25.744;2022-07-29T14:07:44;7.55;;;3.50;;
38693;SDS011;24447;43.460;25.744;2022-07-29T14:10:10;8.85;;;3.70;;
38693;SDS011;24447;43.460;25.744;2022-07-29T14:12:36;7.60;;;3.70;;
38693;SDS011;24447;43.460;25.744;2022-07-29T14:15:03;5.03;;;3.42;;
38693;SDS011;24447;43.460;25.744;2022-07-29T14:17:29;5.18;;;3.08;;
38693;SDS011;24447;43.460;25.744;2022-07-29T14:19:55;8.20;;;3.53;;
38693;SDS011;24447;43.460;25.744;2022-07-29T14:22:21;6.60;;;3.45;;
38693;SDS011;24447;43.460;25.744;2022-07-29T14:24:47;5.68;;;3.22;;
38693;SDS011;24447;43.460;25.744;2022-07-29T14:27:13;9.63;;;5.55;;
38693;SDS011;24447;43.460;25.744;2022-07-29T14:29:39;8.50;;;3.90;;
38693;SDS011;24447;43.460;25.744;2022-07-29T14:32:05;5.45;;;3.70;;
38693;SDS011;24447;43.460;25.744;2022-07-29T14:34:32;5.60;;;3.50;;
38693;SDS011;24447;43.460;25.744;2022-07-29T14:36:58;10.50;;;3.88;;
38693;SDS011;24447;43.460;25.744;2022-07-29T14:39:24;7.95;;;3.38;;
38693;SDS011;24447;43.460;25.744;2022-07-29T14:41:50;5.88;;;3.42;;
38693;SDS011;24447;43.460;25.744;2022-07-29T14:44:16;8.55;;;3.78;;
38693;SDS011;24447;43.460;25.744;2022-07-29T14:46:43;6.32;;;3.40;;
38693;SDS011;24447;43.460;25.744;2022-07-29T14:49:09;9.55;;;3.50;;
38693;SDS011;24447;43.460;25.744;2022-07-29T14:51:35;7.43;;;4.10;;
38693;SDS011;24447;43.460;25.744;2022-07-29T14:54:01;9.38;;;4.13;;
38693;SDS011;24447;43.460;25.744;2022-07-29T14:56:27;10.20;;;3.72;;
38693;SDS011;24447;43.460;25.744;2022-07-29T14:58:55;5.70;;;3.70;;
38693;SDS011;24447;43.460;25.744;2022-07-29T15:01:24;7.35;;;3.70;;
38693;SDS011;24447;43.460;25.744;2022-07-29T15:03:50;7.40;;;3.60;;
38693;SDS011;24447;43.460;25.744;2022-07-29T15:06:16;5.40;;;3.38;;
38693;SDS011;24447;43.460;25.744;2022-07-29T15:08:42;5.50;;;3.35;;
38693;SDS011;24447;43.460;25.744;2022-07-29T15:11:08;3.95;;;3.08;;
38693;SDS011;24447;43.460;25.744;2022-07-29T15:13:34;7.57;;;3.47;;
38693;SDS011;24447;43.460;25.744;2022-07-29T15:16:00;8.57;;;4.60;;
38693;SDS011;24447;43.460;25.744;2022-07-29T15:18:26;5.65;;;3.63;;